Vielha, Spain
Current Conditions -  °F | °C
As of 9:30 PM on Saturday 20 Dec 2014 (Local Time) from LFBT Reporting Station
Overcast Overcast  
Wind Chill: 46°   Ceiling: 300
Heat Index: 48°   Visibility: 6mi
Dew Point: 46°   Wind: 6mph
Humidity: 93%   Direction: 20°NNE
Pressure: 30.59"   Gusts: NA
Location:  42.7°N, 0.8°E
Report Text: LFBT 202030Z AUTO 02005KT 9000 OVC003 09/08 Q1036
Loading
Personal Weather Stations






























Interactive Weather Map New forecast layout! Learn more

10-Day Weather Forecast

Advertisements
Track Severe Weather on mobile